createdAt,value
2022-11-29T00:01:25.813Z,21.61
2022-11-29T00:03:52.720Z,21.61
2022-11-29T00:06:21.771Z,21.56
2022-11-29T00:08:49.381Z,21.60
2022-11-29T00:11:39.153Z,21.60
2022-11-29T00:14:07.336Z,21.59
2022-11-29T00:16:34.345Z,21.58
2022-11-29T00:19:01.337Z,21.58
2022-11-29T00:21:28.293Z,21.56
2022-11-29T00:23:55.674Z,21.57
2022-11-29T00:26:22.503Z,21.56
2022-11-29T00:28:49.651Z,21.57
2022-11-29T00:31:22.110Z,21.55
2022-11-29T00:33:49.238Z,21.54
2022-11-29T00:36:16.831Z,21.55
2022-11-29T00:38:43.618Z,21.54
2022-11-29T00:43:30.182Z,21.53
2022-11-29T00:45:57.114Z,21.53
2022-11-29T00:48:23.667Z,21.52
2022-11-29T00:50:50.344Z,21.52
2022-11-29T00:53:17.039Z,21.51
2022-11-29T00:55:44.827Z,21.47
2022-11-29T00:58:11.372Z,21.51
2022-11-29T01:00:37.979Z,21.50
2022-11-29T01:03:04.509Z,21.51
2022-11-29T01:05:32.570Z,21.51
2022-11-29T01:07:59.454Z,21.45
2022-11-29T01:10:27.054Z,21.50
2022-11-29T01:12:53.898Z,21.50
2022-11-29T01:15:20.514Z,21.50
2022-11-29T01:17:49.023Z,21.49
2022-11-29T01:20:16.167Z,21.49
2022-11-29T01:22:43.071Z,21.49
2022-11-29T01:25:14.229Z,21.49
2022-11-29T01:27:41.516Z,21.49
2022-11-29T01:30:10.110Z,21.46
2022-11-29T01:32:37.566Z,21.49
2022-11-29T01:35:05.434Z,21.51
2022-11-29T01:37:32.280Z,21.51
2022-11-29T01:39:58.903Z,21.51
2022-11-29T01:42:25.504Z,21.49
2022-11-29T01:45:13.918Z,21.51
2022-11-29T01:47:45.694Z,21.48
2022-11-29T01:50:12.527Z,21.49
2022-11-29T01:52:39.455Z,21.50
2022-11-29T01:55:08.470Z,21.45
2022-11-29T01:57:36.683Z,21.50
2022-11-29T02:00:14.003Z,21.50
2022-11-29T02:02:57.279Z,21.50
2022-11-29T02:05:25.389Z,21.49
2022-11-29T02:07:56.225Z,21.49
2022-11-29T02:10:50.558Z,21.49
2022-11-29T02:13:38.299Z,21.47
2022-11-29T02:16:13.075Z,21.47
2022-11-29T02:18:45.552Z,21.47
2022-11-29T02:21:23.255Z,21.41
2022-11-29T02:24:27.226Z,21.47
2022-11-29T02:27:11.879Z,21.45
2022-11-29T02:30:04.161Z,21.45
2022-11-29T02:32:58.366Z,21.44
2022-11-29T02:35:33.692Z,21.43
2022-11-29T02:38:34.330Z,21.44
2022-11-29T02:41:15.986Z,21.43
2022-11-29T02:43:54.671Z,21.42
2022-11-29T02:46:39.278Z,21.42
2022-11-29T02:49:24.303Z,21.42
2022-11-29T02:52:22.974Z,21.41
2022-11-29T02:55:04.513Z,21.41
2022-11-29T02:57:46.101Z,21.41
2022-11-29T03:00:21.391Z,21.41
2022-11-29T03:03:03.581Z,21.40
2022-11-29T03:05:54.030Z,21.39
2022-11-29T03:08:25.602Z,21.39
2022-11-29T03:11:26.553Z,21.39
2022-11-29T03:14:42.624Z,21.37
2022-11-29T03:17:47.067Z,21.38
2022-11-29T03:20:28.958Z,21.38
2022-11-29T03:23:18.819Z,21.37
2022-11-29T03:25:59.362Z,21.35
2022-11-29T03:29:01.040Z,21.35
2022-11-29T03:31:34.978Z,21.35
2022-11-29T03:34:28.210Z,21.36
2022-11-29T03:37:14.041Z,21.36
2022-11-29T03:40:09.851Z,21.34
2022-11-29T03:42:51.378Z,21.34
2022-11-29T03:45:25.693Z,21.33
2022-11-29T03:48:07.421Z,21.34
2022-11-29T03:50:39.090Z,21.34
2022-11-29T03:53:29.002Z,21.21
2022-11-29T03:56:00.251Z,21.33
2022-11-29T03:58:29.501Z,21.32
2022-11-29T04:01:04.301Z,21.32
2022-11-29T04:04:12.815Z,21.32
2022-11-29T04:07:00.791Z,21.29
2022-11-29T04:09:36.378Z,21.32
2022-11-29T04:12:40.603Z,21.31
2022-11-29T04:15:34.686Z,21.31
2022-11-29T04:18:39.015Z,21.29
2022-11-29T04:21:33.313Z,21.29
2022-11-29T04:24:17.590Z,21.29
2022-11-29T04:27:19.275Z,21.27
2022-11-29T04:30:08.935Z,21.27
2022-11-29T04:33:01.935Z,21.26
2022-11-29T04:35:43.858Z,21.27
2022-11-29T04:38:28.441Z,21.27
2022-11-29T04:41:13.414Z,21.25
2022-11-29T04:44:01.035Z,21.25
2022-11-29T04:46:49.432Z,21.25
2022-11-29T04:49:18.886Z,21.24
2022-11-29T04:51:54.728Z,21.23
2022-11-29T04:54:46.542Z,21.22
2022-11-29T04:57:33.553Z,21.13
2022-11-29T05:00:08.127Z,21.21
2022-11-29T05:03:01.638Z,21.22
2022-11-29T05:05:41.787Z,21.21
2022-11-29T05:08:39.307Z,21.20
2022-11-29T05:11:16.163Z,21.20
2022-11-29T05:13:49.186Z,21.18
2022-11-29T05:16:31.631Z,21.18
2022-11-29T05:19:17.191Z,20.87
2022-11-29T05:22:05.559Z,21.13
2022-11-29T05:25:02.789Z,21.15
2022-11-29T05:27:41.300Z,21.14
2022-11-29T05:30:21.749Z,21.14
2022-11-29T05:33:03.986Z,21.14
2022-11-29T05:35:33.243Z,21.13
2022-11-29T05:40:56.276Z,21.12
2022-11-29T05:43:46.118Z,21.10
2022-11-29T05:46:19.889Z,21.07
2022-11-29T05:48:50.975Z,21.08
2022-11-29T05:51:29.875Z,21.09
2022-11-29T05:54:15.192Z,21.08
2022-11-29T05:57:00.136Z,21.06
2022-11-29T05:59:28.806Z,21.05
2022-11-29T06:02:23.170Z,21.06
2022-11-29T06:05:13.520Z,21.05
2022-11-29T06:07:56.285Z,21.04
2022-11-29T06:10:26.639Z,21.03
2022-11-29T06:13:26.960Z,21.02
2022-11-29T06:16:14.171Z,21.02
2022-11-29T06:19:19.286Z,21.01
2022-11-29T06:22:07.249Z,21.01
2022-11-29T06:25:05.047Z,20.99
2022-11-29T06:27:49.433Z,20.98
2022-11-29T06:30:20.818Z,20.98
2022-11-29T06:33:08.238Z,20.98
2022-11-29T06:35:46.638Z,20.97
2022-11-29T06:38:25.971Z,20.97
2022-11-29T06:41:00.114Z,20.97
2022-11-29T06:43:28.781Z,20.97
2022-11-29T06:46:12.808Z,20.97
2022-11-29T06:48:48.776Z,20.98
2022-11-29T06:51:42.760Z,20.94
2022-11-29T06:54:21.436Z,20.97
2022-11-29T06:57:04.651Z,20.95
2022-11-29T06:59:57.663Z,20.91
2022-11-29T07:03:01.450Z,20.97
2022-11-29T07:05:29.827Z,20.96
2022-11-29T07:08:03.904Z,20.97
2022-11-29T07:10:41.356Z,20.97
2022-11-29T07:13:10.661Z,20.93
2022-11-29T07:15:41.458Z,20.91
2022-11-29T07:18:11.006Z,20.97
2022-11-29T07:20:43.466Z,20.98
2022-11-29T07:23:36.320Z,20.98
2022-11-29T07:26:27.843Z,20.88
2022-11-29T07:29:11.034Z,20.97
2022-11-29T07:31:55.447Z,20.88
2022-11-29T07:34:33.720Z,20.96
2022-11-29T07:37:24.963Z,20.95
2022-11-29T07:40:15.939Z,20.94
2022-11-29T07:43:14.803Z,20.93
2022-11-29T07:45:41.521Z,20.93
2022-11-29T07:48:12.076Z,20.88
2022-11-29T07:50:39.471Z,20.83
2022-11-29T07:53:06.131Z,20.93
2022-11-29T07:55:35.112Z,20.91
2022-11-29T07:58:01.603Z,20.91
2022-11-29T08:00:28.486Z,20.92
2022-11-29T08:02:54.964Z,20.91
2022-11-29T08:05:22.429Z,20.83
2022-11-29T08:07:49.359Z,20.89
2022-11-29T08:10:16.727Z,20.91
2022-11-29T08:12:49.925Z,20.90
2022-11-29T08:15:19.421Z,20.90
2022-11-29T08:17:46.646Z,20.88
2022-11-29T08:20:15.500Z,20.89
2022-11-29T08:22:42.732Z,20.88
2022-11-29T08:25:10.611Z,20.81
2022-11-29T08:27:37.885Z,20.81
2022-11-29T08:32:28.220Z,20.88
2022-11-29T08:34:54.903Z,20.83
2022-11-29T08:37:21.444Z,20.79
2022-11-29T08:39:48.008Z,20.85
2022-11-29T08:42:14.539Z,20.86
2022-11-29T08:44:41.123Z,20.86
2022-11-29T08:47:27.546Z,20.85
2022-11-29T08:50:03.197Z,20.83
2022-11-29T08:52:54.339Z,20.83
2022-11-29T08:55:22.874Z,20.82
2022-11-29T08:57:51.791Z,20.82
2022-11-29T09:00:21.255Z,20.80
2022-11-29T09:02:48.524Z,20.83
2022-11-29T09:05:15.779Z,20.81
2022-11-29T09:07:42.491Z,20.81
2022-11-29T09:10:11.511Z,20.80
2022-11-29T09:12:39.772Z,20.80
2022-11-29T09:15:09.681Z,20.78
2022-11-29T09:17:36.287Z,20.79
2022-11-29T09:20:03.923Z,20.79
2022-11-29T09:22:31.038Z,20.78
2022-11-29T09:24:57.534Z,20.74
2022-11-29T09:27:24.147Z,20.78
2022-11-29T09:29:50.739Z,20.73
2022-11-29T09:32:17.415Z,20.77
2022-11-29T09:34:44.330Z,20.76
2022-11-29T09:37:11.151Z,20.76
2022-11-29T09:39:38.132Z,20.71
2022-11-29T09:42:27.309Z,20.75
2022-11-29T09:45:19.253Z,20.75
2022-11-29T09:48:19.335Z,20.75
2022-11-29T09:50:52.260Z,20.74
2022-11-29T09:53:28.324Z,20.74
2022-11-29T09:56:01.721Z,20.72
2022-11-29T09:58:59.283Z,20.73
2022-11-29T10:01:34.354Z,20.73
2022-11-29T10:04:05.531Z,20.63
2022-11-29T10:06:50.070Z,20.68
2022-11-29T10:09:20.547Z,20.72
2022-11-29T10:11:59.040Z,20.72
2022-11-29T10:14:36.254Z,20.72
2022-11-29T10:17:13.760Z,20.71
2022-11-29T10:19:46.696Z,20.71
2022-11-29T10:22:18.493Z,20.70
2022-11-29T10:24:48.855Z,20.70
2022-11-29T10:27:21.231Z,20.68
2022-11-29T10:29:50.971Z,20.68
2022-11-29T10:32:21.179Z,20.60
2022-11-29T10:34:49.169Z,20.55
2022-11-29T10:37:21.560Z,20.61
2022-11-29T10:39:53.061Z,20.67
2022-11-29T10:42:41.213Z,20.68
2022-11-29T10:45:29.861Z,20.67
2022-11-29T10:48:04.752Z,20.65
2022-11-29T10:50:36.935Z,20.64
2022-11-29T10:53:14.011Z,20.63
2022-11-29T10:58:27.988Z,20.59
2022-11-29T11:01:01.084Z,20.60
2022-11-29T11:03:41.167Z,20.66
2022-11-29T11:06:15.936Z,20.65
2022-11-29T11:08:46.130Z,20.66
2022-11-29T11:11:13.849Z,20.67
2022-11-29T11:13:41.635Z,20.67
2022-11-29T11:16:15.373Z,20.62
2022-11-29T11:18:42.655Z,20.67
2022-11-29T11:21:15.582Z,20.68
2022-11-29T11:23:56.199Z,20.68
2022-11-29T11:26:23.739Z,20.69
2022-11-29T11:29:00.075Z,20.67
2022-11-29T11:31:31.651Z,20.69
2022-11-29T11:34:28.604Z,20.70
2022-11-29T11:37:18.942Z,20.69
2022-11-29T11:39:48.608Z,20.71
2022-11-29T11:42:38.345Z,20.71
2022-11-29T11:45:22.863Z,20.63
2022-11-29T11:47:53.959Z,20.69
2022-11-29T11:50:28.386Z,20.71
2022-11-29T11:53:02.394Z,20.71
2022-11-29T11:55:43.108Z,20.73
2022-11-29T11:58:12.697Z,20.73
2022-11-29T12:01:04.409Z,20.72
2022-11-29T12:03:37.195Z,20.72
2022-11-29T12:06:26.117Z,20.74
2022-11-29T12:09:09.824Z,20.73
2022-11-29T12:12:03.629Z,20.73
2022-11-29T12:14:54.414Z,20.72
2022-11-29T12:17:23.670Z,20.72
2022-11-29T12:20:04.439Z,20.56
2022-11-29T12:22:46.599Z,20.70
2022-11-29T12:25:22.247Z,20.71
2022-11-29T12:27:52.988Z,20.71
2022-11-29T12:30:20.005Z,20.67
2022-11-29T12:32:46.504Z,20.69
2022-11-29T12:35:31.471Z,20.65
2022-11-29T12:38:12.847Z,20.62
2022-11-29T12:40:52.157Z,20.68
2022-11-29T12:43:24.464Z,20.68
2022-11-29T12:45:51.063Z,20.69
2022-11-29T12:48:40.319Z,20.70
2022-11-29T12:51:22.171Z,20.69
2022-11-29T12:54:24.703Z,20.69
2022-11-29T12:57:14.791Z,20.61
2022-11-29T12:59:50.559Z,20.69
2022-11-29T13:02:38.807Z,20.68
2022-11-29T13:05:20.469Z,20.69
2022-11-29T13:08:20.327Z,20.68
2022-11-29T13:11:02.680Z,20.63
2022-11-29T13:13:34.910Z,20.68
2022-11-29T13:16:39.462Z,20.67
2022-11-29T13:19:09.010Z,20.66
2022-11-29T13:21:45.748Z,20.60
2022-11-29T13:24:28.748Z,20.67
2022-11-29T13:26:56.420Z,20.64
2022-11-29T13:29:23.375Z,20.66
2022-11-29T13:31:50.530Z,20.61
2022-11-29T13:34:41.672Z,20.65
2022-11-29T13:39:59.442Z,20.66
2022-11-29T13:42:39.794Z,20.66
2022-11-29T13:45:25.406Z,20.65
2022-11-29T13:47:58.034Z,20.64
2022-11-29T13:50:43.634Z,20.63
2022-11-29T13:53:19.083Z,20.59
2022-11-29T13:55:48.694Z,20.64
2022-11-29T13:58:17.403Z,20.63
2022-11-29T14:00:44.803Z,20.64
2022-11-29T14:03:23.822Z,20.63
2022-11-29T14:06:02.822Z,20.60
2022-11-29T14:08:54.557Z,20.65
2022-11-29T14:11:26.527Z,20.66
2022-11-29T14:14:07.476Z,20.65
2022-11-29T14:16:37.786Z,20.67
2022-11-29T14:19:21.018Z,20.67
2022-11-29T14:22:02.875Z,20.66
2022-11-29T14:24:32.508Z,20.67
2022-11-29T14:29:55.054Z,20.69
2022-11-29T14:32:46.221Z,20.68
2022-11-29T14:35:13.158Z,20.67
2022-11-29T14:37:53.790Z,20.68
2022-11-29T14:40:52.419Z,20.68
2022-11-29T14:43:25.248Z,20.70
2022-11-29T14:46:09.016Z,20.68
2022-11-29T14:48:36.851Z,20.60
2022-11-29T14:51:14.430Z,20.70
2022-11-29T14:53:43.105Z,20.71
2022-11-29T14:56:42.430Z,20.71
2022-11-29T14:59:43.551Z,20.71
2022-11-29T15:02:34.745Z,20.72
2022-11-29T15:05:13.754Z,20.71
2022-11-29T15:07:50.369Z,20.72
2022-11-29T15:10:29.420Z,20.72
2022-11-29T15:12:59.328Z,20.66
2022-11-29T15:15:47.255Z,20.74
2022-11-29T15:18:30.405Z,20.70
2022-11-29T15:21:07.364Z,20.75
2022-11-29T15:23:44.096Z,20.63
2022-11-29T15:26:19.837Z,20.77
2022-11-29T15:28:46.836Z,20.76
2022-11-29T15:31:18.625Z,20.71
2022-11-29T15:33:47.866Z,20.70
2022-11-29T15:36:20.514Z,20.78
2022-11-29T15:38:47.120Z,20.81
2022-11-29T15:41:19.595Z,20.80
2022-11-29T15:43:52.509Z,20.79
2022-11-29T15:46:23.756Z,20.80
2022-11-29T15:48:50.335Z,20.81
2022-11-29T15:51:25.615Z,20.81
2022-11-29T15:54:12.735Z,20.82
2022-11-29T15:56:53.702Z,20.82
2022-11-29T15:59:43.453Z,20.72
2022-11-29T16:02:32.172Z,20.78
2022-11-29T16:05:16.157Z,20.83
2022-11-29T16:07:45.977Z,20.74
2022-11-29T16:10:16.867Z,20.77
2022-11-29T16:12:58.725Z,20.81
2022-11-29T16:15:34.315Z,20.80
2022-11-29T16:18:13.123Z,20.81
2022-11-29T16:20:40.611Z,20.80
2022-11-29T16:23:16.399Z,20.73
2022-11-29T16:26:00.925Z,20.83
2022-11-29T16:28:42.632Z,20.79
2022-11-29T16:31:17.839Z,20.73
2022-11-29T16:33:47.434Z,20.67
2022-11-29T16:36:16.420Z,20.84
2022-11-29T16:38:53.807Z,20.84
2022-11-29T16:41:35.136Z,20.72
2022-11-29T16:44:05.794Z,20.84
2022-11-29T16:46:37.463Z,20.84
2022-11-29T16:49:34.555Z,20.84
2022-11-29T16:52:02.329Z,20.79
2022-11-29T16:54:34.186Z,20.65
2022-11-29T16:57:06.405Z,20.81
2022-11-29T16:59:33.116Z,20.82
2022-11-29T17:01:59.879Z,20.82
2022-11-29T17:04:26.594Z,20.81
2022-11-29T17:06:55.135Z,20.73
2022-11-29T17:09:25.472Z,20.80
2022-11-29T17:11:55.875Z,20.78
2022-11-29T17:14:23.028Z,20.78
2022-11-29T17:16:49.769Z,20.80
2022-11-29T17:19:16.846Z,20.80
2022-11-29T17:21:44.156Z,20.78
2022-11-29T17:24:13.599Z,20.81
2022-11-29T17:26:41.326Z,20.81
2022-11-29T17:29:09.692Z,20.76
2022-11-29T17:31:36.514Z,20.67
2022-11-29T17:34:03.183Z,20.84
2022-11-29T17:36:30.615Z,20.75
2022-11-29T17:38:59.522Z,20.84
2022-11-29T17:41:26.873Z,20.83
2022-11-29T17:43:54.863Z,20.86
2022-11-29T17:46:27.510Z,20.84
2022-11-29T17:48:55.563Z,20.86
2022-11-29T17:54:13.567Z,20.76
2022-11-29T17:56:40.103Z,20.88
2022-11-29T17:59:06.741Z,20.72
2022-11-29T18:01:35.745Z,20.89
2022-11-29T18:04:05.869Z,20.87
2022-11-29T18:06:40.707Z,20.81
2022-11-29T18:09:09.161Z,20.88
2022-11-29T18:11:48.190Z,20.85
2022-11-29T18:14:23.251Z,20.88
2022-11-29T18:16:50.597Z,20.91
2022-11-29T18:19:19.985Z,20.93
2022-11-29T18:21:47.196Z,20.82
2022-11-29T18:24:13.818Z,20.96
2022-11-29T18:26:40.794Z,20.97
2022-11-29T18:29:08.329Z,20.97
2022-11-29T18:31:37.947Z,20.98
2022-11-29T18:34:07.068Z,20.93
2022-11-29T18:36:37.344Z,20.99
2022-11-29T18:39:08.846Z,20.99
2022-11-29T18:41:36.026Z,20.98
2022-11-29T18:44:07.500Z,20.97
2022-11-29T18:46:37.056Z,21.00
2022-11-29T18:49:05.817Z,21.00
2022-11-29T18:51:33.125Z,20.99
2022-11-29T18:54:00.678Z,21.00
2022-11-29T18:56:30.565Z,20.98
2022-11-29T18:58:59.358Z,20.97
2022-11-29T19:01:29.263Z,20.98
2022-11-29T19:03:58.388Z,20.88
2022-11-29T19:06:27.980Z,20.87
2022-11-29T19:08:54.855Z,20.96
2022-11-29T19:11:24.294Z,20.95
2022-11-29T19:13:56.656Z,20.96
2022-11-29T19:16:24.103Z,20.95
2022-11-29T19:18:52.958Z,20.93
2022-11-29T19:21:22.523Z,20.98
2022-11-29T19:24:00.551Z,20.98
2022-11-29T19:26:29.447Z,20.97
2022-11-29T19:28:56.399Z,21.01
2022-11-29T19:31:25.124Z,21.01
2022-11-29T19:33:54.312Z,20.92
2022-11-29T19:36:26.214Z,21.02
2022-11-29T19:38:54.441Z,21.03
2022-11-29T19:41:21.168Z,21.02
2022-11-29T19:43:48.745Z,21.02
2022-11-29T19:46:21.140Z,20.97
2022-11-29T19:48:48.685Z,21.01
2022-11-29T19:51:18.881Z,21.02
2022-11-29T19:53:46.891Z,21.08
2022-11-29T19:56:15.900Z,20.95
2022-11-29T19:58:43.774Z,20.87
2022-11-29T20:01:14.160Z,20.83
2022-11-29T20:03:41.889Z,20.79
2022-11-29T20:06:09.646Z,20.77
2022-11-29T20:08:36.748Z,20.74
2022-11-29T20:11:23.173Z,20.74
2022-11-29T20:13:58.669Z,20.58
2022-11-29T20:16:27.259Z,20.73
2022-11-29T20:18:54.778Z,20.74
2022-11-29T20:21:27.342Z,20.64
2022-11-29T20:24:02.911Z,20.70
2022-11-29T20:26:31.365Z,20.74
2022-11-29T20:28:59.708Z,20.64
2022-11-29T20:31:27.456Z,20.72
2022-11-29T20:33:57.798Z,20.70
2022-11-29T20:36:49.878Z,20.72
2022-11-29T20:39:41.646Z,20.70
2022-11-29T20:42:36.342Z,20.70
2022-11-29T20:45:06.564Z,20.69
2022-11-29T20:47:41.156Z,20.70
2022-11-29T20:50:08.449Z,20.71
2022-11-29T20:52:50.155Z,20.72
2022-11-29T20:55:17.611Z,20.73
2022-11-29T21:00:13.769Z,20.73
2022-11-29T21:02:40.615Z,20.74
2022-11-29T21:05:08.054Z,20.71
2022-11-29T21:07:35.044Z,20.75
2022-11-29T21:10:02.124Z,20.74
2022-11-29T21:12:30.132Z,20.74
2022-11-29T21:14:57.348Z,20.73
2022-11-29T21:17:31.728Z,20.74
2022-11-29T21:20:00.399Z,20.76
2022-11-29T21:22:46.871Z,20.75
2022-11-29T21:25:14.004Z,20.75
2022-11-29T21:27:41.055Z,20.69
2022-11-29T21:30:18.123Z,20.73
2022-11-29T21:32:45.666Z,20.67
2022-11-29T21:35:12.924Z,20.71
2022-11-29T21:37:40.690Z,20.69
2022-11-29T21:40:08.414Z,20.69
2022-11-29T21:42:35.099Z,20.68
2022-11-29T21:45:01.701Z,20.69
2022-11-29T21:47:28.395Z,20.66
2022-11-29T21:49:56.182Z,20.68
2022-11-29T21:52:23.302Z,20.68
2022-11-29T21:54:49.981Z,20.66
2022-11-29T21:57:16.600Z,20.67
2022-11-29T22:02:04.821Z,20.67
2022-11-29T22:04:32.148Z,20.67
2022-11-29T22:06:58.664Z,20.68
2022-11-29T22:09:25.363Z,20.69
2022-11-29T22:11:51.880Z,20.68
2022-11-29T22:14:19.191Z,20.65
2022-11-29T22:16:55.757Z,20.65
2022-11-29T22:19:42.458Z,20.63
2022-11-29T22:22:10.879Z,20.67
2022-11-29T22:24:39.922Z,20.68
2022-11-29T22:27:06.602Z,20.67
2022-11-29T22:29:33.192Z,20.65
2022-11-29T22:32:01.098Z,20.62
2022-11-29T22:34:28.346Z,20.64
2022-11-29T22:36:55.731Z,20.64
2022-11-29T22:39:22.899Z,20.60
2022-11-29T22:41:53.910Z,20.59
2022-11-29T22:44:21.376Z,20.61
2022-11-29T22:46:48.107Z,20.55
2022-11-29T22:49:14.981Z,20.61
2022-11-29T22:51:41.585Z,20.40
2022-11-29T22:54:11.321Z,20.60
2022-11-29T22:56:40.837Z,20.59
2022-11-29T22:59:08.202Z,20.55
2022-11-29T23:01:37.143Z,20.41
2022-11-29T23:04:07.046Z,20.54
2022-11-29T23:06:39.283Z,20.55
2022-11-29T23:09:10.613Z,20.55
2022-11-29T23:11:38.462Z,20.55
2022-11-29T23:14:05.009Z,20.52
2022-11-29T23:16:32.849Z,20.54
2022-11-29T23:19:00.922Z,20.50
2022-11-29T23:21:33.232Z,20.53
2022-11-29T23:24:01.445Z,20.49
2022-11-29T23:26:47.705Z,20.52
2022-11-29T23:29:18.764Z,20.52
2022-11-29T23:31:46.827Z,20.52
2022-11-29T23:34:13.991Z,20.50
2022-11-29T23:36:40.704Z,20.52
2022-11-29T23:39:07.286Z,20.51
2022-11-29T23:41:35.601Z,20.49
2022-11-29T23:44:05.918Z,20.46
2022-11-29T23:46:32.803Z,20.49
2022-11-29T23:48:59.370Z,20.50
2022-11-29T23:51:25.966Z,20.49
2022-11-29T23:53:53.723Z,20.50
2022-11-29T23:56:21.641Z,20.49
2022-11-29T23:58:48.543Z,20.48
